Página principal
METAR-TAF:

METAR-TAF

Aeroportos :

Aeroporto Internacional do Kuwait

Kuwait, Kuwait

latitude: 29-13N, longitude: 047-59E, altura: 55 m

Observação actual do tempo

O boletim foi feito há 21 minutos, às 09:00 UTC
Vento 8 kt de norte
Temperatura 20°C
Humidade 49%
Pressão 1021 hPa
Visibilidade 10 km ou mais
sem nuvens abaixo de 1500 metros e sem cumulonimbus

METAR: OKBK 120900Z 36008KT CAVOK 20/09 Q1021 NOSIG

Hora: 12:21 (09:21 UTC)

Previsão

O boletim foi feito há 4 horas e 36 minutos, às 04:45 UTC
Previsão válida de 12 às 06 UTC a 13 às 12 UTC
Vento 3 kt com direcção variável
Visibilidade: 7000 m
Céu limpo
Temporariamente
de 12 às 06 UTC a 12 às 13 UTC
Vento 10 kt de noroeste

TAF: OKBK 120445Z 1206/1312 VRB03KT 7000 SKC TEMPO 1206/1213 32010KT

Observações e previsões do tempo de mais de 4000 aeroportos (mensagens METAR e TAF).

As estações disponíveis são os pontos amarelos e vermelhos sobre o mapa.

Mova o rato sobre o mapa para ver o nome da estação.

Depois clique no ponto para visualizar as observações e previsões meteorológicas.

Para alterar o mapa : clique nos botões verdes com uma cruz preta para aumentar o zoom; no botão verde com uma pitada de zoom; ou nas setas verdes para mapas adjacentes.


METAR-TAF: